Terminal Aerodrome Forecast
Issued by NWS Bismarck, ND

Home | Current Version | Previous Version | Text Only | Print | Product List | Glossary Off
Versions: 1 2 3 4 5 6 7 8 9 10 11 12 13 14 15 16 17 18 19

000
FTUS43 KBIS 190500
TAFBIS
TAF
KBIS 190532Z 1906/2006 17004KT P6SM SCT008 OVC013
      TEMPO 1906/1910 3SM BR BKN008
     FM191000 14005KT P6SM SCT012
     FM191600 18005KT P6SM SCT100=

USA.gov is the U.S. government's official web portal to all federal, state and local government web resources and services.